createdAt,value
2022-10-30T19:02:26.502Z,0.49
2022-10-30T19:04:53.156Z,0.55
2022-10-30T19:07:19.711Z,0.70
2022-10-30T19:09:47.179Z,0.72
2022-10-30T19:12:13.754Z,0.62
2022-10-30T19:14:43.353Z,0.67
2022-10-30T19:17:09.981Z,0.67
2022-10-30T19:19:36.572Z,0.56
2022-10-30T19:22:15.405Z,0.54
2022-10-30T19:24:43.171Z,0.51
2022-10-30T19:27:09.722Z,0.56
2022-10-30T19:29:36.367Z,0.62
2022-10-30T19:32:02.946Z,0.59
2022-10-30T19:34:29.529Z,0.60
2022-10-30T19:36:56.551Z,0.61
2022-10-30T19:39:23.228Z,0.54
2022-10-30T19:41:49.812Z,0.52
2022-10-30T19:44:17.507Z,0.44
2022-10-30T19:46:44.103Z,0.32
2022-10-30T19:49:19.341Z,0.25
2022-10-30T19:51:46.622Z,0.20
2022-10-30T19:54:13.497Z,0.24
2022-10-30T19:56:42.315Z,0.20
2022-10-30T19:59:11.022Z,0.21
2022-10-30T20:01:38.023Z,0.21
2022-10-30T20:04:04.829Z,0.20
2022-10-30T20:06:31.457Z,0.10
2022-10-30T20:09:00.461Z,0.16
2022-10-30T20:11:28.690Z,0.30
2022-10-30T20:13:55.263Z,0.28
2022-10-30T20:16:21.899Z,0.28
2022-10-30T20:18:50.305Z,0.19
2022-10-30T20:21:17.027Z,0.31
2022-10-30T20:23:45.846Z,0.33
2022-10-30T20:26:28.448Z,0.38
2022-10-30T20:28:55.321Z,0.37
2022-10-30T20:31:22.712Z,0.40
2022-10-30T20:33:49.349Z,0.41
2022-10-30T20:36:15.938Z,0.41
2022-10-30T20:38:42.553Z,0.40
2022-10-30T20:41:20.589Z,0.45
2022-10-30T20:43:47.265Z,0.48
2022-10-30T20:46:13.833Z,0.51
2022-10-30T20:48:40.581Z,0.49
2022-10-30T20:51:07.514Z,0.55
2022-10-30T20:53:34.542Z,0.51
2022-10-30T20:56:01.196Z,0.51
2022-10-30T20:58:28.146Z,0.45
2022-10-30T21:00:58.732Z,0.49
2022-10-30T21:03:27.594Z,0.50
2022-10-30T21:05:56.513Z,0.52
2022-10-30T21:08:23.241Z,0.52
2022-10-30T21:10:51.641Z,0.48
2022-10-30T21:13:18.232Z,0.49
2022-10-30T21:15:44.950Z,0.44
2022-10-30T21:18:16.649Z,0.36
2022-10-30T21:20:43.232Z,0.36
2022-10-30T21:23:10.050Z,0.33
2022-10-30T21:25:37.643Z,0.31
2022-10-30T21:28:04.443Z,0.29
2022-10-30T21:30:31.358Z,0.32
2022-10-30T21:32:59.423Z,0.32
2022-10-30T21:35:26.794Z,0.32
2022-10-30T21:37:53.350Z,0.37
2022-10-30T21:40:20.030Z,0.37
2022-10-30T21:42:49.688Z,0.41
2022-10-30T21:45:16.311Z,0.48
2022-10-30T21:47:43.694Z,0.49
2022-10-30T21:50:12.695Z,0.51
2022-10-30T21:52:40.126Z,0.49
2022-10-30T21:55:07.236Z,0.47
2022-10-30T21:57:33.848Z,0.49
2022-10-30T22:00:05.575Z,0.47
2022-10-30T22:02:34.846Z,0.38
2022-10-30T22:05:01.549Z,0.32
2022-10-30T22:07:28.148Z,0.33
2022-10-30T22:09:56.722Z,0.32
2022-10-30T22:12:23.332Z,0.25
2022-10-30T22:14:49.907Z,0.21
2022-10-30T22:17:16.713Z,0.19
2022-10-30T22:19:43.289Z,0.14
2022-10-30T22:22:11.238Z,0.15
2022-10-30T22:24:38.741Z,0.20
2022-10-30T22:27:05.423Z,0.23
2022-10-30T22:29:32.490Z,0.26
2022-10-30T22:31:59.147Z,0.26
2022-10-30T22:34:25.777Z,0.25
2022-10-30T22:36:52.338Z,0.17
2022-10-30T22:39:19.769Z,0.21
2022-10-30T22:41:46.325Z,0.23
2022-10-30T22:44:14.954Z,0.24
2022-10-30T22:46:42.530Z,0.28
2022-10-30T22:49:09.088Z,0.32
2022-10-30T22:51:38.574Z,0.26
2022-10-30T22:54:08.297Z,0.24
2022-10-30T22:56:44.235Z,0.19
2022-10-30T22:59:14.652Z,0.19
2022-10-30T23:01:42.703Z,0.21
2022-10-30T23:04:11.622Z,0.22
2022-10-30T23:06:38.456Z,0.27
2022-10-30T23:09:08.678Z,0.33
2022-10-30T23:11:35.280Z,0.37
2022-10-30T23:14:01.923Z,0.36
2022-10-30T23:16:28.999Z,0.32
2022-10-30T23:18:57.358Z,0.37
2022-10-30T23:21:26.838Z,0.39
2022-10-30T23:23:53.785Z,0.37
2022-10-30T23:26:23.865Z,0.29
2022-10-30T23:28:52.551Z,0.13
2022-10-30T23:31:33.644Z,-0.07
2022-10-30T23:34:03.482Z,-0.22
2022-10-30T23:36:30.126Z,-0.26
2022-10-30T23:38:59.560Z,-0.26
2022-10-30T23:41:30.324Z,-0.22
2022-10-30T23:44:16.171Z,-0.25
2022-10-30T23:46:43.246Z,-0.28
2022-10-30T23:49:09.810Z,-0.35
2022-10-30T23:51:36.476Z,-0.38
2022-10-30T23:54:03.869Z,-0.37
2022-10-30T23:56:30.960Z,-0.33
2022-10-30T23:58:58.156Z,-0.34
